Prudhoe Bay, AK

2:41 AM AKST on February 27, 2015 (GMT -0900)
Deadhorse | Change Station
CLOSE
Current Station
Airport
Location: Deadhorse,
Elevation: 59 ft
Nearby Weather Stations
Active Advisory: Winter Weather Advisory Active Notice: Record Report

Elev 59 ft 70.19 °N, 148.47 °W | Updated 35 minutes ago

Light Snow
Light Snow Blowing Snow
28 °F
Feels Like 12 °F
N
31
Wind Variable Wind from SW

Today
High -- | Low -- °F
--% Chance of Precip.
Yesterday
High -- | Low -- °F
Precip. -- in
8:31 AM 5:43 PM
Waxing Gibbous, 68% visible
Pressure 29.96 in
Visibility 0.8 miles
Clouds Overcast 2100 ft
Windchill 12 °F
Dew Point 25 °F
Humidity 88%
Rainfall 0.00 in
Snow Depth Not available.
UV 0 out of 12
Pollen Not available.
Air Quality Not available.
Flu Activity Not available.
SPECI PASC 271106Z 23027KT 3/4SM R05/P6000FT -SN BLSN OVC021 M02/M04 A2996 RMK AO2 PK WND 23034/1058 P0000 T10221039

More Conditions Fewer Conditions

Pressure 29.96 in
Visibility 0.8 miles
Clouds Overcast 2100 ft
Windchill 12 °F
Dew Point 25 °F
Humidity 88%
Rainfall 0.00 in
Snow Depth Not available.
UV 0 out of 12
Pollen Not available.
Air Quality Not available.
Flu Activity Not available.
SPECI PASC 271106Z 23027KT 3/4SM R05/P6000FT -SN BLSN OVC021 M02/M04 A2996 RMK AO2 PK WND 23034/1058 P0000 T10221039

More Conditions Fewer Conditions

10-Day Weather Forecast

Almanac

Astronomy

Feb. 27, 2015 Rise Set
Actual Time
Civil Twilight
Nautical Twilight
Astronomical Twilight
Moon
Length of Visible Light
Length of Day
Tomorrow will be .
, % of the Moon is Illuminated

Today's Extremes

State Highs State Lows

Community

WunderPhotos

Upload Photos

1,800,656 photos uploaded!

WunderBlogs® & News

Nearby

Air Quality

  Air Quality AQ Index Pollutant
Not available.

Snow Depth

Station Depth Elevation

Earthquake Activity

City Distance Mag. Time & Date
Minimum magnitude displayed is 2.5.

Coastal Water Temperatures

Place Temperature

Nearby Weather Stations

Winter Weather Advisory
Statement as of 6:30 PM AKST on February 26, 2015

... Winter Weather Advisory now in effect until 8 am akst
Friday...

A Winter Weather Advisory for blowing snow remains in effect
until 8 am akst Friday.

* Blowing snow... reducing visibility to one half mile or less at
times.

* Winds... southwest gusting to 30 mph.

* Timing... snow and blowing snow with low visibility will
continue tonight. Conditions will improve Friday morning as
winds diminish.

* Impacts... visibility will be greatly reduced and snow will
accumulate into drifts. Whiteout conditions may occur. Travel
and outdoor activities will be difficult.

Precautionary/preparedness actions...

A Winter Weather Advisory means that one or more winter weather
hazards are expected to cause travel difficulties.